sensor_id;sensor_type;location;lat;lon;timestamp;temperature;humidity
33699;DHT22;20032;52.436;13.312;2022-11-15T00:01:38;6.30;99.90
33699;DHT22;20032;52.436;13.312;2022-11-15T00:04:04;6.20;99.90
33699;DHT22;20032;52.436;13.312;2022-11-15T00:06:30;6.10;99.90
33699;DHT22;20032;52.436;13.312;2022-11-15T00:08:58;6.10;99.90
33699;DHT22;20032;52.436;13.312;2022-11-15T00:11:23;6.10;99.90
33699;DHT22;20032;52.436;13.312;2022-11-15T00:13:49;6.10;99.90
33699;DHT22;20032;52.436;13.312;2022-11-15T00:16:14;6.10;99.90
33699;DHT22;20032;52.436;13.312;2022-11-15T00:18:40;6.10;99.90
33699;DHT22;20032;52.436;13.312;2022-11-15T00:21:09;6.00;99.90
33699;DHT22;20032;52.436;13.312;2022-11-15T00:23:35;6.00;99.90
33699;DHT22;20032;52.436;13.312;2022-11-15T00:26:00;6.00;99.90
33699;DHT22;20032;52.436;13.312;2022-11-15T00:28:26;6.00;99.90
33699;DHT22;20032;52.436;13.312;2022-11-15T00:30:51;6.00;99.90
33699;DHT22;20032;52.436;13.312;2022-11-15T00:33:17;6.00;99.90
33699;DHT22;20032;52.436;13.312;2022-11-15T00:35:43;6.00;99.90
33699;DHT22;20032;52.436;13.312;2022-11-15T00:38:08;6.00;99.90
33699;DHT22;20032;52.436;13.312;2022-11-15T00:40:34;5.90;99.90
33699;DHT22;20032;52.436;13.312;2022-11-15T00:42:59;6.00;99.90
33699;DHT22;20032;52.436;13.312;2022-11-15T00:45:25;5.90;99.90
33699;DHT22;20032;52.436;13.312;2022-11-15T00:47:51;5.90;99.90
33699;DHT22;20032;52.436;13.312;2022-11-15T00:50:17;6.00;99.90
33699;DHT22;20032;52.436;13.312;2022-11-15T00:52:44;6.00;99.90
33699;DHT22;20032;52.436;13.312;2022-11-15T00:55:17;6.00;99.90
33699;DHT22;20032;52.436;13.312;2022-11-15T00:57:43;6.00;99.90
33699;DHT22;20032;52.436;13.312;2022-11-15T01:00:09;6.00;99.90
33699;DHT22;20032;52.436;13.312;2022-11-15T01:02:35;5.90;99.90
33699;DHT22;20032;52.436;13.312;2022-11-15T01:05:00;5.80;99.90
33699;DHT22;20032;52.436;13.312;2022-11-15T01:07:26;5.80;99.90
33699;DHT22;20032;52.436;13.312;2022-11-15T01:09:51;5.90;99.90
33699;DHT22;20032;52.436;13.312;2022-11-15T01:12:17;5.80;99.90
33699;DHT22;20032;52.436;13.312;2022-11-15T01:14:42;5.80;99.90
33699;DHT22;20032;52.436;13.312;2022-11-15T01:17:08;5.80;99.90
33699;DHT22;20032;52.436;13.312;2022-11-15T01:19:33;5.80;99.90
33699;DHT22;20032;52.436;13.312;2022-11-15T01:21:59;5.80;99.90
33699;DHT22;20032;52.436;13.312;2022-11-15T01:24:24;5.80;99.90
33699;DHT22;20032;52.436;13.312;2022-11-15T01:26:50;5.80;99.90
33699;DHT22;20032;52.436;13.312;2022-11-15T01:29:15;5.80;99.90
33699;DHT22;20032;52.436;13.312;2022-11-15T01:31:41;5.80;99.90
33699;DHT22;20032;52.436;13.312;2022-11-15T01:34:06;5.70;99.90
33699;DHT22;20032;52.436;13.312;2022-11-15T01:36:32;5.80;99.90
33699;DHT22;20032;52.436;13.312;2022-11-15T01:38:58;5.70;99.90
33699;DHT22;20032;52.436;13.312;2022-11-15T01:41:26;5.70;99.90
33699;DHT22;20032;52.436;13.312;2022-11-15T01:43:54;5.70;99.90
33699;DHT22;20032;52.436;13.312;2022-11-15T01:46:24;5.80;99.90
33699;DHT22;20032;52.436;13.312;2022-11-15T01:48:52;5.80;99.90
33699;DHT22;20032;52.436;13.312;2022-11-15T01:51:22;5.90;99.90
33699;DHT22;20032;52.436;13.312;2022-11-15T01:53:50;5.80;99.90
33699;DHT22;20032;52.436;13.312;2022-11-15T01:56:19;5.80;99.90
33699;DHT22;20032;52.436;13.312;2022-11-15T01:58:46;5.80;99.90
33699;DHT22;20032;52.436;13.312;2022-11-15T02:01:13;5.80;99.90
33699;DHT22;20032;52.436;13.312;2022-11-15T02:03:45;5.80;99.90
33699;DHT22;20032;52.436;13.312;2022-11-15T02:06:13;5.90;99.90
33699;DHT22;20032;52.436;13.312;2022-11-15T02:08:39;5.80;99.90
33699;DHT22;20032;52.436;13.312;2022-11-15T02:11:08;5.80;99.90
33699;DHT22;20032;52.436;13.312;2022-11-15T02:13:33;5.80;99.90
33699;DHT22;20032;52.436;13.312;2022-11-15T02:18:18;5.80;99.90
33699;DHT22;20032;52.436;13.312;2022-11-15T02:23:04;5.90;99.90
33699;DHT22;20032;52.436;13.312;2022-11-15T02:26:09;5.80;99.90
33699;DHT22;20032;52.436;13.312;2022-11-15T02:28:10;5.70;99.90
33699;DHT22;20032;52.436;13.312;2022-11-15T02:30:44;5.80;99.90
33699;DHT22;20032;52.436;13.312;2022-11-15T02:35:52;5.70;99.90
33699;DHT22;20032;52.436;13.312;2022-11-15T02:38:42;5.70;99.90
33699;DHT22;20032;52.436;13.312;2022-11-15T02:41:16;5.70;99.90
33699;DHT22;20032;52.436;13.312;2022-11-15T02:43:48;5.70;99.90
33699;DHT22;20032;52.436;13.312;2022-11-15T02:46:43;5.50;99.90
33699;DHT22;20032;52.436;13.312;2022-11-15T02:49:32;5.50;99.90
33699;DHT22;20032;52.436;13.312;2022-11-15T02:51:58;5.60;99.90
33699;DHT22;20032;52.436;13.312;2022-11-15T02:54:28;5.60;99.90
33699;DHT22;20032;52.436;13.312;2022-11-15T02:56:57;5.60;99.90
33699;DHT22;20032;52.436;13.312;2022-11-15T02:59:48;5.60;99.90
33699;DHT22;20032;52.436;13.312;2022-11-15T03:02:32;5.70;99.90
33699;DHT22;20032;52.436;13.312;2022-11-15T03:06:20;5.60;99.90
33699;DHT22;20032;52.436;13.312;2022-11-15T03:08:17;5.60;99.90
33699;DHT22;20032;52.436;13.312;2022-11-15T03:11:08;5.50;99.90
33699;DHT22;20032;52.436;13.312;2022-11-15T03:13:57;5.60;99.90
33699;DHT22;20032;52.436;13.312;2022-11-15T03:16:34;5.60;99.90
33699;DHT22;20032;52.436;13.312;2022-11-15T03:19:12;5.70;99.90
33699;DHT22;20032;52.436;13.312;2022-11-15T03:21:39;5.70;99.90
33699;DHT22;20032;52.436;13.312;2022-11-15T03:24:07;5.70;99.90
33699;DHT22;20032;52.436;13.312;2022-11-15T03:26:35;5.70;99.90
33699;DHT22;20032;52.436;13.312;2022-11-15T03:29:33;5.70;99.90
33699;DHT22;20032;52.436;13.312;2022-11-15T03:31:54;5.60;99.90
33699;DHT22;20032;52.436;13.312;2022-11-15T03:36:58;5.70;99.90
33699;DHT22;20032;52.436;13.312;2022-11-15T03:39:24;5.60;99.90
33699;DHT22;20032;52.436;13.312;2022-11-15T03:42:15;5.50;99.90
33699;DHT22;20032;52.436;13.312;2022-11-15T03:44:49;5.50;99.90
33699;DHT22;20032;52.436;13.312;2022-11-15T03:47:29;5.50;99.90
33699;DHT22;20032;52.436;13.312;2022-11-15T03:50:01;5.50;99.90
33699;DHT22;20032;52.436;13.312;2022-11-15T03:52:32;5.40;99.90
33699;DHT22;20032;52.436;13.312;2022-11-15T03:55:00;5.40;99.90
33699;DHT22;20032;52.436;13.312;2022-11-15T03:57:26;5.40;99.90
33699;DHT22;20032;52.436;13.312;2022-11-15T03:59:52;5.30;99.90
33699;DHT22;20032;52.436;13.312;2022-11-15T04:02:17;5.30;99.90
33699;DHT22;20032;52.436;13.312;2022-11-15T04:04:43;5.30;99.90
33699;DHT22;20032;52.436;13.312;2022-11-15T04:07:08;5.40;99.90
33699;DHT22;20032;52.436;13.312;2022-11-15T04:09:34;5.30;99.90
33699;DHT22;20032;52.436;13.312;2022-11-15T04:12:19;5.30;99.90
33699;DHT22;20032;52.436;13.312;2022-11-15T04:14:57;5.40;99.90
33699;DHT22;20032;52.436;13.312;2022-11-15T04:17:55;5.40;99.90
33699;DHT22;20032;52.436;13.312;2022-11-15T04:20:23;5.40;99.90
33699;DHT22;20032;52.436;13.312;2022-11-15T04:23:12;5.40;99.90
33699;DHT22;20032;52.436;13.312;2022-11-15T04:26:01;5.40;99.90
33699;DHT22;20032;52.436;13.312;2022-11-15T04:28:28;5.50;99.90
33699;DHT22;20032;52.436;13.312;2022-11-15T04:30:54;5.50;99.90
33699;DHT22;20032;52.436;13.312;2022-11-15T04:33:19;5.50;99.90
33699;DHT22;20032;52.436;13.312;2022-11-15T04:35:45;5.50;99.90
33699;DHT22;20032;52.436;13.312;2022-11-15T04:38:30;5.50;99.90
33699;DHT22;20032;52.436;13.312;2022-11-15T04:40:56;5.40;99.90
33699;DHT22;20032;52.436;13.312;2022-11-15T04:43:21;5.40;99.90
33699;DHT22;20032;52.436;13.312;2022-11-15T04:45:47;5.40;99.90
33699;DHT22;20032;52.436;13.312;2022-11-15T04:48:12;5.40;99.90
33699;DHT22;20032;52.436;13.312;2022-11-15T04:50:38;5.50;99.90
33699;DHT22;20032;52.436;13.312;2022-11-15T04:53:03;5.50;99.90
33699;DHT22;20032;52.436;13.312;2022-11-15T04:55:29;5.40;99.90
33699;DHT22;20032;52.436;13.312;2022-11-15T04:58:00;5.40;99.90
33699;DHT22;20032;52.436;13.312;2022-11-15T05:00:27;5.40;99.90
33699;DHT22;20032;52.436;13.312;2022-11-15T05:02:53;5.30;99.90
33699;DHT22;20032;52.436;13.312;2022-11-15T05:05:38;5.30;99.90
33699;DHT22;20032;52.436;13.312;2022-11-15T05:08:04;5.40;99.90
33699;DHT22;20032;52.436;13.312;2022-11-15T05:10:29;5.40;99.90
33699;DHT22;20032;52.436;13.312;2022-11-15T05:12:55;5.40;99.90
33699;DHT22;20032;52.436;13.312;2022-11-15T05:15:20;5.40;99.90
33699;DHT22;20032;52.436;13.312;2022-11-15T05:17:46;5.50;99.90
33699;DHT22;20032;52.436;13.312;2022-11-15T05:20:12;5.50;99.90
33699;DHT22;20032;52.436;13.312;2022-11-15T05:22:37;5.50;99.90
33699;DHT22;20032;52.436;13.312;2022-11-15T05:25:04;5.40;99.90
33699;DHT22;20032;52.436;13.312;2022-11-15T05:27:29;5.30;99.90
33699;DHT22;20032;52.436;13.312;2022-11-15T05:29:55;5.30;99.90
33699;DHT22;20032;52.436;13.312;2022-11-15T05:32:20;5.30;99.90
33699;DHT22;20032;52.436;13.312;2022-11-15T05:34:46;5.20;99.90
33699;DHT22;20032;52.436;13.312;2022-11-15T05:37:12;5.20;99.90
33699;DHT22;20032;52.436;13.312;2022-11-15T05:39:38;5.20;99.90
33699;DHT22;20032;52.436;13.312;2022-11-15T05:42:09;5.20;99.90
33699;DHT22;20032;52.436;13.312;2022-11-15T05:44:36;5.20;99.90
33699;DHT22;20032;52.436;13.312;2022-11-15T05:47:05;5.30;99.90
33699;DHT22;20032;52.436;13.312;2022-11-15T05:49:33;5.30;99.90
33699;DHT22;20032;52.436;13.312;2022-11-15T05:52:00;5.30;99.90
33699;DHT22;20032;52.436;13.312;2022-11-15T05:54:27;5.30;99.90
33699;DHT22;20032;52.436;13.312;2022-11-15T05:56:53;5.20;99.90
33699;DHT22;20032;52.436;13.312;2022-11-15T05:59:20;5.20;99.90
33699;DHT22;20032;52.436;13.312;2022-11-15T06:01:45;5.20;99.90
33699;DHT22;20032;52.436;13.312;2022-11-15T06:04:11;5.20;99.90
33699;DHT22;20032;52.436;13.312;2022-11-15T06:06:36;5.30;99.90
33699;DHT22;20032;52.436;13.312;2022-11-15T06:09:02;5.20;99.90
33699;DHT22;20032;52.436;13.312;2022-11-15T06:11:27;5.20;99.90
33699;DHT22;20032;52.436;13.312;2022-11-15T06:13:53;5.20;99.90
33699;DHT22;20032;52.436;13.312;2022-11-15T06:16:18;5.10;99.90
33699;DHT22;20032;52.436;13.312;2022-11-15T06:18:44;5.10;99.90
33699;DHT22;20032;52.436;13.312;2022-11-15T06:21:09;5.10;99.90
33699;DHT22;20032;52.436;13.312;2022-11-15T06:23:35;5.10;99.90
33699;DHT22;20032;52.436;13.312;2022-11-15T06:26:02;5.10;99.90
33699;DHT22;20032;52.436;13.312;2022-11-15T06:28:30;5.10;99.90
33699;DHT22;20032;52.436;13.312;2022-11-15T06:30:56;5.20;99.90
33699;DHT22;20032;52.436;13.312;2022-11-15T06:33:21;5.30;99.90
33699;DHT22;20032;52.436;13.312;2022-11-15T06:35:47;5.30;99.90
33699;DHT22;20032;52.436;13.312;2022-11-15T06:38:12;5.30;99.90
33699;DHT22;20032;52.436;13.312;2022-11-15T06:40:38;5.30;99.90
33699;DHT22;20032;52.436;13.312;2022-11-15T06:43:05;5.30;99.90
33699;DHT22;20032;52.436;13.312;2022-11-15T06:45:31;5.20;99.90
33699;DHT22;20032;52.436;13.312;2022-11-15T06:47:57;5.20;99.90
33699;DHT22;20032;52.436;13.312;2022-11-15T06:50:23;5.30;99.90
33699;DHT22;20032;52.436;13.312;2022-11-15T06:52:48;5.30;99.90
33699;DHT22;20032;52.436;13.312;2022-11-15T06:55:14;5.40;99.90
33699;DHT22;20032;52.436;13.312;2022-11-15T06:57:48;5.40;99.90
33699;DHT22;20032;52.436;13.312;2022-11-15T07:00:15;5.40;99.90
33699;DHT22;20032;52.436;13.312;2022-11-15T07:02:40;5.40;99.90
33699;DHT22;20032;52.436;13.312;2022-11-15T07:05:07;5.40;99.90
33699;DHT22;20032;52.436;13.312;2022-11-15T07:07:32;5.50;99.90
33699;DHT22;20032;52.436;13.312;2022-11-15T07:09:58;5.40;99.90
33699;DHT22;20032;52.436;13.312;2022-11-15T07:12:23;5.50;99.90
33699;DHT22;20032;52.436;13.312;2022-11-15T07:14:49;5.50;99.90
33699;DHT22;20032;52.436;13.312;2022-11-15T07:17:14;5.60;99.90
33699;DHT22;20032;52.436;13.312;2022-11-15T07:19:40;5.70;99.90
33699;DHT22;20032;52.436;13.312;2022-11-15T07:22:05;5.80;99.90
33699;DHT22;20032;52.436;13.312;2022-11-15T07:24:31;5.80;99.90
33699;DHT22;20032;52.436;13.312;2022-11-15T07:26:56;5.90;99.90
33699;DHT22;20032;52.436;13.312;2022-11-15T07:29:22;6.00;99.90
33699;DHT22;20032;52.436;13.312;2022-11-15T07:31:47;6.10;99.90
33699;DHT22;20032;52.436;13.312;2022-11-15T07:34:14;6.20;99.90
33699;DHT22;20032;52.436;13.312;2022-11-15T07:36:39;6.10;99.90
33699;DHT22;20032;52.436;13.312;2022-11-15T07:39:05;6.30;99.90
33699;DHT22;20032;52.436;13.312;2022-11-15T07:41:31;6.30;99.90
33699;DHT22;20032;52.436;13.312;2022-11-15T07:43:56;6.40;99.90
33699;DHT22;20032;52.436;13.312;2022-11-15T07:46:22;6.40;99.90
33699;DHT22;20032;52.436;13.312;2022-11-15T07:48:48;6.50;99.90
33699;DHT22;20032;52.436;13.312;2022-11-15T07:51:14;6.70;99.90
33699;DHT22;20032;52.436;13.312;2022-11-15T07:53:41;6.70;99.90
33699;DHT22;20032;52.436;13.312;2022-11-15T07:56:07;6.80;99.90
33699;DHT22;20032;52.436;13.312;2022-11-15T07:58:33;6.80;99.90
33699;DHT22;20032;52.436;13.312;2022-11-15T08:00:58;6.80;99.90
33699;DHT22;20032;52.436;13.312;2022-11-15T08:03:27;6.90;99.90
33699;DHT22;20032;52.436;13.312;2022-11-15T08:05:52;6.90;99.90
33699;DHT22;20032;52.436;13.312;2022-11-15T08:08:18;7.00;99.90
33699;DHT22;20032;52.436;13.312;2022-11-15T08:10:44;7.00;99.90
33699;DHT22;20032;52.436;13.312;2022-11-15T08:13:11;7.10;99.90
33699;DHT22;20032;52.436;13.312;2022-11-15T08:15:37;7.10;99.90
33699;DHT22;20032;52.436;13.312;2022-11-15T08:18:05;7.10;99.90
33699;DHT22;20032;52.436;13.312;2022-11-15T08:20:31;7.20;99.90
33699;DHT22;20032;52.436;13.312;2022-11-15T08:22:58;7.30;99.90
33699;DHT22;20032;52.436;13.312;2022-11-15T08:25:25;7.40;99.90
33699;DHT22;20032;52.436;13.312;2022-11-15T08:27:54;7.50;99.90
33699;DHT22;20032;52.436;13.312;2022-11-15T08:30:20;7.60;99.90
33699;DHT22;20032;52.436;13.312;2022-11-15T08:32:47;7.70;99.90
33699;DHT22;20032;52.436;13.312;2022-11-15T08:35:12;7.80;99.90
33699;DHT22;20032;52.436;13.312;2022-11-15T08:37:38;7.90;99.90
33699;DHT22;20032;52.436;13.312;2022-11-15T08:40:04;8.00;99.90
33699;DHT22;20032;52.436;13.312;2022-11-15T08:42:30;8.10;99.90
33699;DHT22;20032;52.436;13.312;2022-11-15T08:44:55;8.30;99.90
33699;DHT22;20032;52.436;13.312;2022-11-15T08:47:21;8.40;99.90
33699;DHT22;20032;52.436;13.312;2022-11-15T08:49:46;8.50;99.90
33699;DHT22;20032;52.436;13.312;2022-11-15T08:52:13;8.70;99.90
33699;DHT22;20032;52.436;13.312;2022-11-15T08:54:39;8.70;99.90
33699;DHT22;20032;52.436;13.312;2022-11-15T08:57:04;8.90;99.90
33699;DHT22;20032;52.436;13.312;2022-11-15T08:59:30;9.00;99.90
33699;DHT22;20032;52.436;13.312;2022-11-15T09:01:55;9.10;99.90
33699;DHT22;20032;52.436;13.312;2022-11-15T09:04:21;9.20;99.90
33699;DHT22;20032;52.436;13.312;2022-11-15T09:06:47;9.30;99.90
33699;DHT22;20032;52.436;13.312;2022-11-15T09:09:12;9.40;99.90
33699;DHT22;20032;52.436;13.312;2022-11-15T09:11:38;9.50;99.90
33699;DHT22;20032;52.436;13.312;2022-11-15T09:14:03;9.70;99.90
33699;DHT22;20032;52.436;13.312;2022-11-15T09:16:30;9.70;99.90
33699;DHT22;20032;52.436;13.312;2022-11-15T09:18:56;9.80;99.90
33699;DHT22;20032;52.436;13.312;2022-11-15T09:21:22;9.80;99.90
33699;DHT22;20032;52.436;13.312;2022-11-15T09:23:50;9.80;99.90
33699;DHT22;20032;52.436;13.312;2022-11-15T09:26:17;9.90;99.90
33699;DHT22;20032;52.436;13.312;2022-11-15T09:28:43;10.00;99.90
33699;DHT22;20032;52.436;13.312;2022-11-15T09:31:09;10.10;99.90
33699;DHT22;20032;52.436;13.312;2022-11-15T09:33:35;10.10;99.90
33699;DHT22;20032;52.436;13.312;2022-11-15T09:36:02;10.20;99.90
33699;DHT22;20032;52.436;13.312;2022-11-15T09:38:28;10.40;99.90
33699;DHT22;20032;52.436;13.312;2022-11-15T09:43:45;10.50;99.90
33699;DHT22;20032;52.436;13.312;2022-11-15T09:49:04;10.70;99.90
33699;DHT22;20032;52.436;13.312;2022-11-15T09:51:34;10.80;99.90
33699;DHT22;20032;52.436;13.312;2022-11-15T09:54:10;10.90;99.90
33699;DHT22;20032;52.436;13.312;2022-11-15T09:56:39;10.90;99.90
33699;DHT22;20032;52.436;13.312;2022-11-15T10:04:16;11.00;99.90
33699;DHT22;20032;52.436;13.312;2022-11-15T10:06:47;11.00;99.90
33699;DHT22;20032;52.436;13.312;2022-11-15T10:09:21;11.10;99.90
33699;DHT22;20032;52.436;13.312;2022-11-15T10:11:49;11.20;99.90
33699;DHT22;20032;52.436;13.312;2022-11-15T10:14:19;11.30;99.90
33699;DHT22;20032;52.436;13.312;2022-11-15T10:18:05;11.40;99.90
33699;DHT22;20032;52.436;13.312;2022-11-15T10:22:25;11.60;99.90
33699;DHT22;20032;52.436;13.312;2022-11-15T10:25:31;11.60;99.90
33699;DHT22;20032;52.436;13.312;2022-11-15T10:27:50;11.60;99.90
33699;DHT22;20032;52.436;13.312;2022-11-15T10:30:18;11.60;99.90
33699;DHT22;20032;52.436;13.312;2022-11-15T10:32:45;11.60;99.90
33699;DHT22;20032;52.436;13.312;2022-11-15T10:35:28;11.60;99.90
33699;DHT22;20032;52.436;13.312;2022-11-15T10:38:10;11.70;99.90
33699;DHT22;20032;52.436;13.312;2022-11-15T10:40:38;11.80;99.90
33699;DHT22;20032;52.436;13.312;2022-11-15T10:43:13;11.90;99.90
33699;DHT22;20032;52.436;13.312;2022-11-15T10:45:39;11.80;99.90
33699;DHT22;20032;52.436;13.312;2022-11-15T10:50:43;12.00;99.90
33699;DHT22;20032;52.436;13.312;2022-11-15T10:53:20;12.00;99.90
33699;DHT22;20032;52.436;13.312;2022-11-15T10:55:47;12.20;99.90
33699;DHT22;20032;52.436;13.312;2022-11-15T10:58:36;12.40;99.90
33699;DHT22;20032;52.436;13.312;2022-11-15T11:01:23;12.40;99.90
33699;DHT22;20032;52.436;13.312;2022-11-15T11:04:05;12.60;99.90
33699;DHT22;20032;52.436;13.312;2022-11-15T11:07:01;12.80;99.90
33699;DHT22;20032;52.436;13.312;2022-11-15T11:11:58;12.90;99.90
33699;DHT22;20032;52.436;13.312;2022-11-15T11:14:26;13.10;99.90
33699;DHT22;20032;52.436;13.312;2022-11-15T11:16:55;13.20;99.90
33699;DHT22;20032;52.436;13.312;2022-11-15T11:19:30;13.50;99.90
33699;DHT22;20032;52.436;13.312;2022-11-15T11:22:20;13.20;99.90
33699;DHT22;20032;52.436;13.312;2022-11-15T11:30:21;13.70;99.90
33699;DHT22;20032;52.436;13.312;2022-11-15T11:36:52;14.50;99.90
33699;DHT22;20032;52.436;13.312;2022-11-15T11:39:42;14.70;99.90
33699;DHT22;20032;52.436;13.312;2022-11-15T11:42:24;14.60;99.90
33699;DHT22;20032;52.436;13.312;2022-11-15T11:45:46;14.90;99.90
33699;DHT22;20032;52.436;13.312;2022-11-15T11:48:08;15.10;99.90
33699;DHT22;20032;52.436;13.312;2022-11-15T11:50:37;15.40;99.90
33699;DHT22;20032;52.436;13.312;2022-11-15T11:53:25;15.60;99.90
33699;DHT22;20032;52.436;13.312;2022-11-15T11:55:54;15.40;99.90
33699;DHT22;20032;52.436;13.312;2022-11-15T11:58:32;15.70;99.90
33699;DHT22;20032;52.436;13.312;2022-11-15T12:01:10;15.90;99.90
33699;DHT22;20032;52.436;13.312;2022-11-15T12:03:47;16.10;99.90
33699;DHT22;20032;52.436;13.312;2022-11-15T12:06:39;16.30;99.90
33699;DHT22;20032;52.436;13.312;2022-11-15T12:09:32;16.60;99.90
33699;DHT22;20032;52.436;13.312;2022-11-15T12:14:56;16.90;99.90
33699;DHT22;20032;52.436;13.312;2022-11-15T12:17:26;16.90;99.90
33699;DHT22;20032;52.436;13.312;2022-11-15T12:19:56;17.00;99.90
33699;DHT22;20032;52.436;13.312;2022-11-15T12:23:24;17.40;99.90
33699;DHT22;20032;52.436;13.312;2022-11-15T12:30:44;17.70;99.90
33699;DHT22;20032;52.436;13.312;2022-11-15T12:33:30;17.60;99.90
33699;DHT22;20032;52.436;13.312;2022-11-15T12:36:01;17.40;99.90
33699;DHT22;20032;52.436;13.312;2022-11-15T12:41:16;17.40;99.90
33699;DHT22;20032;52.436;13.312;2022-11-15T12:43:44;17.50;99.90
33699;DHT22;20032;52.436;13.312;2022-11-15T12:46:19;17.40;99.90
33699;DHT22;20032;52.436;13.312;2022-11-15T12:48:50;17.30;99.90
33699;DHT22;20032;52.436;13.312;2022-11-15T12:51:16;17.10;99.90
33699;DHT22;20032;52.436;13.312;2022-11-15T12:53:42;16.90;99.90
33699;DHT22;20032;52.436;13.312;2022-11-15T12:58:47;16.80;99.90
33699;DHT22;20032;52.436;13.312;2022-11-15T13:06:51;16.30;99.90
33699;DHT22;20032;52.436;13.312;2022-11-15T13:12:09;16.00;99.90
33699;DHT22;20032;52.436;13.312;2022-11-15T13:14:43;15.90;99.90
33699;DHT22;20032;52.436;13.312;2022-11-15T13:17:24;15.80;99.90
33699;DHT22;20032;52.436;13.312;2022-11-15T13:19:59;15.70;99.90
33699;DHT22;20032;52.436;13.312;2022-11-15T13:22:27;15.60;99.90
33699;DHT22;20032;52.436;13.312;2022-11-15T13:28:21;15.60;99.90
33699;DHT22;20032;52.436;13.312;2022-11-15T13:30:49;15.40;99.90
33699;DHT22;20032;52.436;13.312;2022-11-15T13:33:19;15.40;99.90
33699;DHT22;20032;52.436;13.312;2022-11-15T13:35:48;15.20;99.90
33699;DHT22;20032;52.436;13.312;2022-11-15T13:38:35;15.10;99.90
33699;DHT22;20032;52.436;13.312;2022-11-15T13:41:22;15.10;99.90
33699;DHT22;20032;52.436;13.312;2022-11-15T13:43:50;15.00;99.90
33699;DHT22;20032;52.436;13.312;2022-11-15T13:46:18;15.10;99.90
33699;DHT22;20032;52.436;13.312;2022-11-15T13:48:45;15.10;99.90
33699;DHT22;20032;52.436;13.312;2022-11-15T13:51:49;15.00;99.90
33699;DHT22;20032;52.436;13.312;2022-11-15T13:54:16;14.80;99.90
33699;DHT22;20032;52.436;13.312;2022-11-15T13:56:46;14.70;99.90
33699;DHT22;20032;52.436;13.312;2022-11-15T13:59:31;14.60;99.90
33699;DHT22;20032;52.436;13.312;2022-11-15T14:02:01;14.50;99.90
33699;DHT22;20032;52.436;13.312;2022-11-15T14:04:29;14.50;99.90
33699;DHT22;20032;52.436;13.312;2022-11-15T14:06:57;14.50;99.90
33699;DHT22;20032;52.436;13.312;2022-11-15T14:09:33;14.40;99.90
33699;DHT22;20032;52.436;13.312;2022-11-15T14:12:00;14.30;99.90
33699;DHT22;20032;52.436;13.312;2022-11-15T14:14:28;14.20;99.90
33699;DHT22;20032;52.436;13.312;2022-11-15T14:16:56;14.20;99.90
33699;DHT22;20032;52.436;13.312;2022-11-15T14:22:12;14.20;99.90
33699;DHT22;20032;52.436;13.312;2022-11-15T14:24:39;14.10;99.90
33699;DHT22;20032;52.436;13.312;2022-11-15T14:27:25;14.10;99.90
33699;DHT22;20032;52.436;13.312;2022-11-15T14:29:51;13.90;99.90
33699;DHT22;20032;52.436;13.312;2022-11-15T14:32:22;13.90;99.90
33699;DHT22;20032;52.436;13.312;2022-11-15T14:34:49;13.80;99.90
33699;DHT22;20032;52.436;13.312;2022-11-15T14:37:22;13.60;99.90
33699;DHT22;20032;52.436;13.312;2022-11-15T14:39:48;13.40;99.90
33699;DHT22;20032;52.436;13.312;2022-11-15T14:42:14;13.40;99.90
33699;DHT22;20032;52.436;13.312;2022-11-15T14:44:40;13.40;99.90
33699;DHT22;20032;52.436;13.312;2022-11-15T14:47:06;13.30;99.90
33699;DHT22;20032;52.436;13.312;2022-11-15T14:49:31;13.20;99.90
33699;DHT22;20032;52.436;13.312;2022-11-15T14:51:57;13.20;99.90
33699;DHT22;20032;52.436;13.312;2022-11-15T14:54:22;13.20;99.90
33699;DHT22;20032;52.436;13.312;2022-11-15T14:56:47;13.10;99.90
33699;DHT22;20032;52.436;13.312;2022-11-15T14:59:13;13.10;99.90
33699;DHT22;20032;52.436;13.312;2022-11-15T15:01:38;13.20;99.90
33699;DHT22;20032;52.436;13.312;2022-11-15T15:04:04;13.20;99.90
33699;DHT22;20032;52.436;13.312;2022-11-15T15:06:30;13.10;99.90
33699;DHT22;20032;52.436;13.312;2022-11-15T15:08:57;13.00;99.90
33699;DHT22;20032;52.436;13.312;2022-11-15T15:11:26;12.90;99.90
33699;DHT22;20032;52.436;13.312;2022-11-15T15:13:52;12.80;99.90
33699;DHT22;20032;52.436;13.312;2022-11-15T15:16:19;12.70;99.90
33699;DHT22;20032;52.436;13.312;2022-11-15T15:18:45;12.60;99.90
33699;DHT22;20032;52.436;13.312;2022-11-15T15:21:26;12.50;99.90
33699;DHT22;20032;52.436;13.312;2022-11-15T15:23:53;12.50;99.90
33699;DHT22;20032;52.436;13.312;2022-11-15T15:26:20;12.50;99.90
33699;DHT22;20032;52.436;13.312;2022-11-15T15:28:45;12.50;99.90
33699;DHT22;20032;52.436;13.312;2022-11-15T15:31:11;12.40;99.90
33699;DHT22;20032;52.436;13.312;2022-11-15T15:33:37;12.30;99.90
33699;DHT22;20032;52.436;13.312;2022-11-15T15:36:03;12.30;99.90
33699;DHT22;20032;52.436;13.312;2022-11-15T15:38:28;12.20;99.90
33699;DHT22;20032;52.436;13.312;2022-11-15T15:40:54;12.10;99.90
33699;DHT22;20032;52.436;13.312;2022-11-15T15:43:20;12.00;99.90
33699;DHT22;20032;52.436;13.312;2022-11-15T15:45:45;11.90;99.90
33699;DHT22;20032;52.436;13.312;2022-11-15T15:48:12;11.90;99.90
33699;DHT22;20032;52.436;13.312;2022-11-15T15:50:38;11.90;99.90
33699;DHT22;20032;52.436;13.312;2022-11-15T15:53:04;11.80;99.90
33699;DHT22;20032;52.436;13.312;2022-11-15T15:55:30;11.80;99.90
33699;DHT22;20032;52.436;13.312;2022-11-15T15:57:56;11.70;99.90
33699;DHT22;20032;52.436;13.312;2022-11-15T16:00:23;11.60;99.90
33699;DHT22;20032;52.436;13.312;2022-11-15T16:02:50;11.50;99.90
33699;DHT22;20032;52.436;13.312;2022-11-15T16:05:16;11.40;99.90
33699;DHT22;20032;52.436;13.312;2022-11-15T16:07:42;11.30;99.90
33699;DHT22;20032;52.436;13.312;2022-11-15T16:10:26;11.30;99.90
33699;DHT22;20032;52.436;13.312;2022-11-15T16:12:53;11.20;99.90
33699;DHT22;20032;52.436;13.312;2022-11-15T16:15:19;11.20;99.90
33699;DHT22;20032;52.436;13.312;2022-11-15T16:17:49;11.20;99.90
33699;DHT22;20032;52.436;13.312;2022-11-15T16:23:09;11.30;99.90
33699;DHT22;20032;52.436;13.312;2022-11-15T16:25:40;11.30;99.90
33699;DHT22;20032;52.436;13.312;2022-11-15T16:30:44;11.20;99.90
33699;DHT22;20032;52.436;13.312;2022-11-15T16:33:10;11.10;99.90
33699;DHT22;20032;52.436;13.312;2022-11-15T16:35:35;11.00;99.90
33699;DHT22;20032;52.436;13.312;2022-11-15T16:38:01;11.10;99.90
33699;DHT22;20032;52.436;13.312;2022-11-15T16:40:29;11.00;99.90
33699;DHT22;20032;52.436;13.312;2022-11-15T16:42:56;11.10;99.90
33699;DHT22;20032;52.436;13.312;2022-11-15T16:45:23;11.10;99.90
33699;DHT22;20032;52.436;13.312;2022-11-15T16:47:48;11.20;99.90
33699;DHT22;20032;52.436;13.312;2022-11-15T16:50:24;11.20;99.90
33699;DHT22;20032;52.436;13.312;2022-11-15T16:52:51;11.20;99.90